Архив погоды в Морозовске

Метеограмма Морозовск
Суббота, 21 Октября
Время местн. Темп Ветер Видим Явления Облачность нижн/средн/верх Атм. давл. Влжн Точка росы ВНГО R Сост. почвы Tg s
Напр Скр Прв ур.ст ур.м изм
09:00 +7.6° В 4 - 20 км - облачно 756 765 0 81% +4.5° 600 м - - - -
06:00 +7.3° С-В 3 - 20 км - облачно 756 765 -0.2 91% +6° 600 м 0 Влажная (без луж) +7° -
03:00 +7.7° В 4 - 20 км небо без изменений {ливневые осадки} облачно 756 765 +0.1 85% +5.3° 600 м - - - -
00:00 +9.1° С-В 3 - 20 км небо без изменений {ливневые осадки} облачно 757 765 +0.1 81% +6° 1 км - - - -
Пятница, 20 Октября
Время местн. Темп Ветер Видим Явления Облачность нижн/средн/верх Атм. давл. Влжн Точка росы ВНГО R Сост. почвы Tg s
Напр Скр Прв ур.ст ур.м изм
21:00 +10.5° С-В 2 - 10 км слабый ливневый дождь облачно 757 765 +0.3 83% +7.7° 600 м - - - -
18:00 +12.7° В,С-В 1 - 10 км - облачно 756 765 +0.3 83% +9.9° 600 м 0 - - -
15:00 +14.1° В 1 - 10 км - облачно 756 764 -0.2 83% +11.2° 600 м - - - -
12:00 +13.7° З 1 - 4 км дымка облачно 756 764 +0.5 88% +11.7° 300 м - - - -
09:00 +11.4° С 1 - 2 км туман облачно 756 764 +0.5 97% +11° 300 м - - - -
06:00 +11.2° З,С-З 1 - 200 м туман неба не видно 756 764 +0.3 97% +10.8° - 0 Сухая (без трещин) +6° -
03:00 +10.5° З 2 - 0.2 км туман усиливается неба не видно 755 764 0 97% +10.1° - - - - -
00:00 +9° З 1 - 20 км - ясно 755 764 -0.2 95% +8.2° более 2.5 км - - - -
Четверг, 19 Октября
Время местн. Темп Ветер Видим Явления Облачность нижн/средн/верх Атм. давл. Влжн Точка росы ВНГО R Сост. почвы Tg s
Напр Скр Прв ур.ст ур.м изм
21:00 +11° Ю-З 1 - 20 км - ясно 756 764 +0.2 90% +9.4° более 2.5 км - - - -
18:00 +12.7° Ю,Ю-З 2 - 20 км - облачно с прояснениями 755 763 0 79% +9.1° более 2.5 км 0 - - -
15:00 +18.2° Ю-З 5 - 20 км - облачно с прояснениями 755 763 -0.7 61% +10.6° более 2.5 км - - - -
12:00 +17° З 6 - 20 км - ясно 756 764 -0.5 64% +10.1° более 2.5 км - - - -
09:00 +11° З,Ю-З 4 - 20 км - переменная облачность 757 765 +0.1 79% +7.5° более 2.5 км - - - -
06:00 +8.2° Ю-З 3 - 20 км - ясно 757 765 +0.1 81% +5.1° более 2.5 км 0 Сухая (без трещин) +6° -
03:00 +8.4° З,Ю-З 3 - 20 км - ясно 757 765 -0.3 85% +6° более 2.5 км - - - -
00:00 +10.3° Ю-З 4 - 20 км - переменная облачность 757 765 -0.8 79% +6.9° более 2.5 км - - - -
Среда, 18 Октября
Время местн. Темп Ветер Видим Явления Облачность нижн/средн/верх Атм. давл. Влжн Точка росы ВНГО R Сост. почвы Tg s
Напр Скр Прв ур.ст ур.м изм
21:00 +10.5° Ю-З 4 - 20 км - ясно 758 766 0 82% +7.5° более 2.5 км - - - -
18:00 +12.2° Ю-З 3 - 20 км - ясно 758 766 -0.7 83% +9.4° более 2.5 км 0 - - -
15:00 +14.7° З,Ю-З 3 - 20 км облака развиваются {туман} незначительная облачность 758 767 -1 73% +10° более 2.5 км - - - -
12:00 +10.7° З,Ю-З 4 - 1 км дымка {туман} облачно 759 768 -0.3 98% +10.4° 1 км - - - -
09:00 +6.7° З 3 - 0.2 км туман неба не видно 760 768 +1 98% +6.4° - - - - -
06:00 +4.7° З 2 - 500 м туман неба не видно 759 767 +0.8 99% +4.5° - 0 Сухая (без трещин) +3° -